createdAt,value
2023-02-15T00:02:16.253Z,-0.10
2023-02-15T00:07:20.035Z,-0.10
2023-02-15T00:12:21.739Z,0.10
2023-02-15T00:17:23.486Z,0.10
2023-02-15T00:22:26.019Z,0.20
2023-02-15T00:27:27.682Z,0.20
2023-02-15T00:32:29.359Z,0.30
2023-02-15T00:37:31.104Z,0.20
2023-02-15T00:42:32.772Z,0.30
2023-02-15T00:47:34.450Z,0.30
2023-02-15T00:52:36.213Z,0.30
2023-02-15T00:57:37.878Z,0.30
2023-02-15T01:02:39.522Z,0.40
2023-02-15T01:07:41.184Z,0.30
2023-02-15T01:12:43.164Z,0.20
2023-02-15T01:17:50.467Z,0.20
2023-02-15T01:22:53.195Z,0.10
2023-02-15T01:27:54.890Z,0.00
2023-02-15T01:32:56.749Z,0.20
2023-02-15T01:37:58.552Z,0.30
2023-02-15T01:43:00.221Z,0.10
2023-02-15T01:48:09.240Z,0.30
2023-02-15T01:53:24.964Z,0.20
2023-02-15T01:58:30.079Z,0.40
2023-02-15T02:04:14.387Z,0.00
2023-02-15T02:09:16.594Z,-0.20
2023-02-15T02:14:19.210Z,-0.30
2023-02-15T02:19:41.141Z,-0.20
2023-02-15T02:25:23.789Z,0.20
2023-02-15T02:30:47.159Z,0.30
2023-02-15T02:36:01.560Z,0.30
2023-02-15T02:41:28.979Z,0.30
2023-02-15T02:46:48.110Z,0.40
2023-02-15T02:51:59.878Z,-0.10
2023-02-15T02:57:07.266Z,-0.30
2023-02-15T03:02:14.692Z,-0.40
2023-02-15T03:07:23.088Z,-0.30
2023-02-15T03:12:30.851Z,0.00
2023-02-15T03:17:36.514Z,0.10
2023-02-15T03:22:45.497Z,0.10
2023-02-15T03:27:50.670Z,0.10
2023-02-15T03:32:53.841Z,-0.10
2023-02-15T03:38:00.426Z,-0.20
2023-02-15T03:43:33.551Z,-0.90
2023-02-15T03:48:42.769Z,-1.00
2023-02-15T03:53:47.460Z,-1.00
2023-02-15T03:59:07.668Z,-0.90
2023-02-15T04:04:25.517Z,-0.90
2023-02-15T04:09:45.740Z,-0.60
2023-02-15T04:15:06.301Z,-0.50
2023-02-15T04:20:28.465Z,-0.50
2023-02-15T04:25:30.294Z,-0.50
2023-02-15T04:30:31.995Z,-0.50
2023-02-15T04:35:34.472Z,-0.60
2023-02-15T04:40:36.188Z,-0.80
2023-02-15T04:45:37.875Z,-1.00
2023-02-15T04:50:39.533Z,-0.90
2023-02-15T04:55:41.743Z,-0.70
2023-02-15T05:00:43.428Z,-0.60
2023-02-15T05:05:45.174Z,-0.40
2023-02-15T05:10:49.582Z,-0.30
2023-02-15T05:15:52.601Z,-0.30
2023-02-15T05:20:54.392Z,-0.30
2023-02-15T05:26:14.962Z,-0.40
2023-02-15T05:31:20.709Z,-0.30
2023-02-15T05:36:22.574Z,-0.20
2023-02-15T05:41:25.093Z,-0.70
2023-02-15T05:46:26.851Z,-1.10
2023-02-15T05:51:28.600Z,-1.40
2023-02-15T05:56:30.232Z,-1.10
2023-02-15T06:01:31.894Z,-0.80
2023-02-15T06:06:35.423Z,-0.80
2023-02-15T06:11:37.084Z,-0.70
2023-02-15T06:16:38.818Z,-0.60
2023-02-15T06:21:41.628Z,-0.50
2023-02-15T06:26:43.306Z,-0.60
2023-02-15T06:31:45.050Z,-0.80
2023-02-15T06:36:46.845Z,-0.70
2023-02-15T06:41:48.521Z,-0.70
2023-02-15T06:46:50.416Z,-0.60
2023-02-15T06:51:52.081Z,-0.90
2023-02-15T06:56:53.754Z,-0.60
2023-02-15T07:01:55.480Z,-0.70
2023-02-15T07:06:57.158Z,-0.70
2023-02-15T07:12:17.558Z,-0.50
2023-02-15T07:17:34.978Z,-1.20
2023-02-15T07:22:38.087Z,-1.20
2023-02-15T07:27:39.935Z,-1.10
2023-02-15T07:33:04.634Z,-1.00
2023-02-15T07:38:06.878Z,-0.90
2023-02-15T07:43:08.545Z,-0.70
2023-02-15T07:48:10.516Z,-0.30
2023-02-15T07:53:12.230Z,-0.10
2023-02-15T07:58:13.987Z,0.10
2023-02-15T08:03:15.854Z,-0.40
2023-02-15T08:08:32.685Z,-0.20
2023-02-15T08:13:34.331Z,0.10
2023-02-15T08:18:36.058Z,0.70
2023-02-15T08:23:37.711Z,1.70
2023-02-15T08:28:40.202Z,2.20
2023-02-15T08:33:43.627Z,3.20
2023-02-15T08:38:45.475Z,3.80
2023-02-15T08:43:50.220Z,3.90
2023-02-15T08:48:52.241Z,3.50
2023-02-15T08:53:55.862Z,3.20
2023-02-15T08:58:58.005Z,3.20
2023-02-15T09:04:06.352Z,4.20
2023-02-15T09:09:09.369Z,4.40
2023-02-15T09:14:16.669Z,5.20
2023-02-15T09:19:20.108Z,5.60
2023-02-15T09:24:21.884Z,4.90
2023-02-15T09:29:23.877Z,5.00
2023-02-15T09:34:25.599Z,4.70
2023-02-15T09:39:30.523Z,4.60
2023-02-15T09:44:35.207Z,4.40
2023-02-15T09:50:00.401Z,4.40
2023-02-15T09:55:35.945Z,4.40
2023-02-15T10:01:02.855Z,4.80
2023-02-15T10:06:16.998Z,4.90
2023-02-15T10:11:40.101Z,5.50
2023-02-15T10:16:58.456Z,5.70
2023-02-15T10:22:16.360Z,6.40
2023-02-15T10:27:21.980Z,8.30
2023-02-15T10:32:30.313Z,10.80
2023-02-15T10:37:47.377Z,12.50
2023-02-15T10:42:54.978Z,12.70
2023-02-15T10:48:11.574Z,13.60
2023-02-15T10:53:41.079Z,13.90
2023-02-15T10:58:42.804Z,15.70
2023-02-15T11:04:29.089Z,16.10
2023-02-15T11:09:41.852Z,16.50
2023-02-15T11:14:55.177Z,16.80
2023-02-15T11:20:10.450Z,16.30
2023-02-15T11:25:35.211Z,16.70
2023-02-15T11:30:45.784Z,15.60
2023-02-15T11:36:00.460Z,16.60
2023-02-15T11:41:25.325Z,16.90
2023-02-15T11:46:27.135Z,17.20
2023-02-15T11:51:29.898Z,17.40
2023-02-15T11:56:34.194Z,17.70
2023-02-15T12:01:45.606Z,18.00
2023-02-15T12:07:08.854Z,18.10
2023-02-15T12:12:30.924Z,18.60
2023-02-15T12:17:37.790Z,19.60
2023-02-15T12:22:46.266Z,20.80
2023-02-15T12:27:49.054Z,20.90
2023-02-15T12:32:57.308Z,21.50
2023-02-15T12:38:10.005Z,22.40
2023-02-15T12:43:32.795Z,21.90
2023-02-15T12:48:40.650Z,23.10
2023-02-15T12:53:45.063Z,23.60
2023-02-15T12:58:47.027Z,24.20
2023-02-15T13:04:07.512Z,24.80
2023-02-15T13:09:39.555Z,24.60
2023-02-15T13:14:46.517Z,24.80
2023-02-15T13:19:52.868Z,24.60
2023-02-15T13:24:58.541Z,24.90
2023-02-15T13:30:04.371Z,24.60
2023-02-15T13:35:09.465Z,24.70
2023-02-15T13:40:19.263Z,24.40
2023-02-15T13:45:31.904Z,23.90
2023-02-15T13:50:44.639Z,23.60
2023-02-15T13:55:55.427Z,23.30
2023-02-15T14:01:02.311Z,23.20
2023-02-15T14:06:45.384Z,22.20
2023-02-15T14:12:24.479Z,22.20
2023-02-15T14:17:32.471Z,22.40
2023-02-15T14:22:41.880Z,21.70
2023-02-15T14:28:15.708Z,21.70
2023-02-15T14:33:39.272Z,21.60
2023-02-15T14:38:54.637Z,21.10
2023-02-15T14:44:17.497Z,21.00
2023-02-15T14:49:36.352Z,21.20
2023-02-15T14:54:37.993Z,20.40
2023-02-15T14:59:45.848Z,20.40
2023-02-15T15:04:59.751Z,20.30
2023-02-15T15:10:27.485Z,19.40
2023-02-15T15:15:32.345Z,19.10
2023-02-15T15:20:41.869Z,18.80
2023-02-15T15:25:55.370Z,18.10
2023-02-15T15:31:00.559Z,17.70
2023-02-15T15:36:18.017Z,17.30
2023-02-15T15:41:45.171Z,17.00
2023-02-15T15:47:13.429Z,16.60
2023-02-15T15:52:18.058Z,16.00
2023-02-15T15:57:43.802Z,15.20
2023-02-15T16:02:51.997Z,14.00
2023-02-15T16:07:53.767Z,12.90
2023-02-15T16:12:56.071Z,11.90
2023-02-15T16:17:59.517Z,11.10
2023-02-15T16:23:39.739Z,10.50
2023-02-15T16:28:48.221Z,10.30
2023-02-15T16:33:54.440Z,9.80
2023-02-15T16:38:56.052Z,9.50
2023-02-15T16:44:03.971Z,9.10
2023-02-15T16:49:16.344Z,8.90
2023-02-15T16:54:23.480Z,8.40
2023-02-15T16:59:40.649Z,8.30
2023-02-15T17:04:43.267Z,8.10
2023-02-15T17:09:53.612Z,7.90
2023-02-15T17:14:56.146Z,7.70
2023-02-15T17:19:58.041Z,7.50
2023-02-15T17:25:02.343Z,7.30
2023-02-15T17:30:15.624Z,7.10
2023-02-15T17:35:21.908Z,6.90
2023-02-15T17:40:29.485Z,6.60
2023-02-15T17:45:38.654Z,6.20
2023-02-15T17:50:40.862Z,6.10
2023-02-15T17:55:43.591Z,5.80
2023-02-15T18:01:18.514Z,5.80
2023-02-15T18:06:38.836Z,5.80
2023-02-15T18:11:40.590Z,5.50
2023-02-15T18:16:45.536Z,5.30
2023-02-15T18:21:47.870Z,5.20
2023-02-15T18:26:49.650Z,5.30
2023-02-15T18:31:55.973Z,5.40
2023-02-15T18:36:59.258Z,5.20
2023-02-15T18:42:01.313Z,5.10
2023-02-15T18:47:03.038Z,4.70
2023-02-15T18:52:04.922Z,4.80
2023-02-15T18:57:10.384Z,5.00
2023-02-15T19:02:14.275Z,5.10
2023-02-15T19:07:26.111Z,4.90
2023-02-15T19:12:31.210Z,4.80
2023-02-15T19:17:32.862Z,4.80
2023-02-15T19:22:34.860Z,4.90
2023-02-15T19:27:36.964Z,4.80
2023-02-15T19:32:38.737Z,4.90
2023-02-15T19:37:43.644Z,4.90
2023-02-15T19:42:45.339Z,5.10
2023-02-15T19:47:49.982Z,4.70
2023-02-15T19:52:52.012Z,4.80
2023-02-15T19:57:55.320Z,4.80
2023-02-15T20:02:59.274Z,4.80
2023-02-15T20:08:03.963Z,4.70
2023-02-15T20:13:05.687Z,4.60
2023-02-15T20:18:08.134Z,4.50
2023-02-15T20:23:31.924Z,4.20
2023-02-15T20:28:33.601Z,4.40
2023-02-15T20:33:35.248Z,4.40
2023-02-15T20:38:36.944Z,4.40
2023-02-15T20:43:39.447Z,4.30
2023-02-15T20:48:41.190Z,4.30
2023-02-15T20:53:42.877Z,4.20
2023-02-15T20:58:44.605Z,4.20
2023-02-15T21:03:47.295Z,4.10
2023-02-15T21:08:48.990Z,4.20
2023-02-15T21:13:51.148Z,4.10
2023-02-15T21:18:52.850Z,4.10
2023-02-15T21:23:54.660Z,4.10
2023-02-15T21:28:56.842Z,4.10
2023-02-15T21:33:58.486Z,4.00
2023-02-15T21:39:00.526Z,3.90
2023-02-15T21:44:21.340Z,3.90
2023-02-15T21:49:23.099Z,3.80
2023-02-15T21:54:26.270Z,3.70
2023-02-15T21:59:28.006Z,3.80
2023-02-15T22:04:30.779Z,3.50
2023-02-15T22:09:38.004Z,3.50
2023-02-15T22:14:41.465Z,3.70
2023-02-15T22:19:44.532Z,3.70
2023-02-15T22:24:46.667Z,3.50
2023-02-15T22:29:49.694Z,3.50
2023-02-15T22:34:52.791Z,3.80
2023-02-15T22:39:54.612Z,3.60
2023-02-15T22:44:57.845Z,3.80
2023-02-15T22:49:59.481Z,3.60
2023-02-15T22:55:01.118Z,3.60
2023-02-15T23:00:03.843Z,3.60
2023-02-15T23:05:05.764Z,3.50
2023-02-15T23:10:21.023Z,3.50
2023-02-15T23:15:22.738Z,3.40
2023-02-15T23:20:25.506Z,3.40
2023-02-15T23:25:28.102Z,3.30
2023-02-15T23:30:29.994Z,3.60
2023-02-15T23:35:31.674Z,3.80
2023-02-15T23:40:51.817Z,3.80
2023-02-15T23:45:53.570Z,4.20
2023-02-15T23:50:55.263Z,4.90
2023-02-15T23:55:57.833Z,5.50
